Los Angeles, California
Current Conditions -  °F | °C
As of 4:47 PM on Monday 22 Dec 2014 (Local Time) from KCQT Reporting Station
Clear Clear  
Wind Chill: 67°   Ceiling: Unl
Heat Index: 67°   Visibility: 9mi
Dew Point: 54°   Wind: 0mph
Humidity: 63%   Direction: NA
Pressure: 29.94"   Gusts: NA
Location:  34.05°N, 118.24°W
Report Text: KCQT 230047Z AUTO 00000KT 9SM CLR 19/12 A2994 RMK AO2 SLP138 T01940122
Loading
Personal Weather Stations






























Interactive Weather Map New forecast layout! Learn more

10-Day Weather Forecast

Advertisements
Track Severe Weather on mobile